createdAt,value
2017-11-30T00:02:20.481Z,-1.00
2017-11-30T00:04:48.806Z,-0.70
2017-11-30T00:07:36.670Z,-0.80
2017-11-30T00:10:04.238Z,-0.60
2017-11-30T00:12:31.925Z,-0.50
2017-11-30T00:14:59.508Z,-0.40
2017-11-30T00:17:27.065Z,-0.30
2017-11-30T00:19:54.629Z,-0.20
2017-11-30T00:22:22.207Z,-0.10
2017-11-30T00:24:49.792Z,-0.10
2017-11-30T00:27:17.440Z,0.00
2017-11-30T00:29:44.984Z,0.10
2017-11-30T00:32:12.533Z,0.10
2017-11-30T00:34:40.088Z,0.20
2017-11-30T00:37:07.629Z,0.20
2017-11-30T00:39:35.941Z,0.30
2017-11-30T00:42:03.569Z,0.30
2017-11-30T00:44:32.988Z,0.30
2017-11-30T00:47:00.577Z,0.40
2017-11-30T00:49:28.154Z,0.40
2017-11-30T00:51:55.698Z,0.50
2017-11-30T00:54:23.247Z,0.40
2017-11-30T00:56:50.796Z,0.40
2017-11-30T00:59:18.369Z,0.40
2017-11-30T01:01:45.954Z,0.40
2017-11-30T01:04:13.511Z,0.40
2017-11-30T01:06:41.069Z,0.40
2017-11-30T01:09:08.623Z,0.40
2017-11-30T01:11:36.984Z,0.60
2017-11-30T01:14:04.529Z,0.50
2017-11-30T01:16:32.116Z,0.60
2017-11-30T01:18:59.669Z,0.60
2017-11-30T01:21:28.194Z,0.60
2017-11-30T01:23:55.742Z,0.60
2017-11-30T01:26:23.292Z,0.60
2017-11-30T01:28:50.858Z,0.60
2017-11-30T01:31:18.412Z,0.60
2017-11-30T01:33:45.987Z,0.60
2017-11-30T01:36:14.331Z,0.60
2017-11-30T01:38:41.900Z,0.60
2017-11-30T01:41:09.446Z,0.50
2017-11-30T01:43:37.002Z,0.60
2017-11-30T01:46:04.550Z,0.60
2017-11-30T01:48:32.098Z,0.60
2017-11-30T01:50:59.695Z,0.60
2017-11-30T01:53:27.284Z,0.60
2017-11-30T01:55:54.843Z,0.60
2017-11-30T01:58:22.395Z,0.60
2017-11-30T02:00:50.017Z,0.50
2017-11-30T02:03:17.577Z,0.50
2017-11-30T02:05:45.144Z,0.60
2017-11-30T02:08:12.733Z,0.60
2017-11-30T02:10:40.287Z,0.60
2017-11-30T02:13:26.266Z,0.60
2017-11-30T02:15:54.453Z,0.60
2017-11-30T02:18:21.997Z,0.70
2017-11-30T02:20:49.568Z,0.70
2017-11-30T02:23:17.146Z,0.70
2017-11-30T02:25:44.732Z,0.70
2017-11-30T02:28:12.349Z,0.60
2017-11-30T02:30:39.986Z,0.60
2017-11-30T02:33:07.549Z,0.60
2017-11-30T02:35:35.114Z,0.60
2017-11-30T02:38:02.689Z,0.60
2017-11-30T02:40:30.266Z,0.60
2017-11-30T02:42:57.863Z,0.60
2017-11-30T02:45:26.204Z,0.60
2017-11-30T02:47:53.757Z,0.60
2017-11-30T02:50:22.126Z,0.60
2017-11-30T02:52:49.791Z,0.60
2017-11-30T02:55:17.453Z,0.60
2017-11-30T02:57:45.000Z,0.50
2017-11-30T03:00:12.567Z,0.50
2017-11-30T03:02:40.180Z,0.50
2017-11-30T03:05:07.736Z,0.40
2017-11-30T03:07:35.324Z,0.40
2017-11-30T03:10:03.679Z,0.30
2017-11-30T03:12:32.013Z,0.30
2017-11-30T03:14:59.583Z,0.30
2017-11-30T03:17:27.158Z,0.30
2017-11-30T03:19:54.708Z,0.20
2017-11-30T03:22:22.308Z,0.20
2017-11-30T03:24:50.681Z,0.20
2017-11-30T03:27:19.011Z,0.20
2017-11-30T03:29:46.576Z,0.20
2017-11-30T03:32:14.140Z,0.30
2017-11-30T03:34:41.702Z,0.40
2017-11-30T03:37:09.317Z,0.40
2017-11-30T03:39:37.695Z,0.60
2017-11-30T03:42:06.033Z,0.60
2017-11-30T03:44:33.588Z,0.60
2017-11-30T03:47:01.192Z,0.70
2017-11-30T03:49:29.550Z,0.70
2017-11-30T03:51:57.097Z,0.70
2017-11-30T03:54:24.668Z,0.80
2017-11-30T03:56:52.221Z,0.80
2017-11-30T03:59:19.772Z,0.80
2017-11-30T04:01:47.330Z,0.80
2017-11-30T04:04:14.893Z,0.80
2017-11-30T04:06:42.464Z,0.70
2017-11-30T04:09:10.016Z,0.70
2017-11-30T04:11:37.570Z,0.70
2017-11-30T04:14:05.124Z,0.70
2017-11-30T04:16:32.752Z,0.70
2017-11-30T04:19:00.299Z,0.70
2017-11-30T04:21:28.606Z,0.70
2017-11-30T04:23:56.157Z,0.70
2017-11-30T04:26:23.697Z,0.70
2017-11-30T04:28:52.084Z,0.70
2017-11-30T04:31:19.648Z,0.60
2017-11-30T04:33:47.199Z,0.60
2017-11-30T04:36:14.743Z,0.70
2017-11-30T04:38:42.328Z,0.70
2017-11-30T04:41:09.876Z,0.70
2017-11-30T04:43:37.436Z,0.70
2017-11-30T04:46:05.792Z,0.60
2017-11-30T04:48:33.333Z,0.60
2017-11-30T04:51:00.869Z,0.70
2017-11-30T04:53:28.410Z,0.60
2017-11-30T04:55:55.976Z,0.60
2017-11-30T04:58:23.554Z,0.60
2017-11-30T05:00:51.136Z,0.60
2017-11-30T05:03:18.732Z,0.60
2017-11-30T05:05:47.068Z,0.70
2017-11-30T05:08:14.610Z,0.60
2017-11-30T05:10:42.177Z,0.60
2017-11-30T05:13:09.741Z,0.60
2017-11-30T05:15:37.291Z,0.60
2017-11-30T05:18:04.865Z,0.60
2017-11-30T05:20:32.410Z,0.60
2017-11-30T05:22:59.989Z,0.60
2017-11-30T05:25:27.554Z,0.60
2017-11-30T05:27:55.124Z,0.50
2017-11-30T05:30:22.679Z,0.50
2017-11-30T05:32:50.246Z,0.50
2017-11-30T05:35:21.588Z,0.50
2017-11-30T05:37:49.127Z,0.50
2017-11-30T05:40:16.687Z,0.50
2017-11-30T05:42:44.245Z,0.50
2017-11-30T05:45:11.810Z,0.50
2017-11-30T05:47:39.387Z,0.50
2017-11-30T05:50:06.961Z,0.50
2017-11-30T05:52:34.524Z,0.50
2017-11-30T05:55:02.862Z,0.50
2017-11-30T05:57:30.426Z,0.40
2017-11-30T05:59:58.036Z,0.50
2017-11-30T06:02:26.364Z,0.40
2017-11-30T06:04:53.909Z,0.40
2017-11-30T06:07:21.480Z,0.40
2017-11-30T06:09:49.023Z,0.40
2017-11-30T06:12:17.373Z,0.40
2017-11-30T06:14:45.701Z,0.40
2017-11-30T06:17:14.063Z,0.40
2017-11-30T06:19:41.618Z,0.40
2017-11-30T06:22:09.169Z,0.40
2017-11-30T06:24:36.718Z,0.40
2017-11-30T06:27:05.060Z,0.50
2017-11-30T06:29:32.623Z,0.50
2017-11-30T06:32:00.168Z,0.50
2017-11-30T06:34:27.714Z,0.50
2017-11-30T06:36:55.268Z,0.50
2017-11-30T06:39:22.890Z,0.50
2017-11-30T06:41:51.221Z,0.50
2017-11-30T06:44:18.780Z,0.50
2017-11-30T06:46:46.321Z,0.60
2017-11-30T06:49:13.932Z,0.60
2017-11-30T06:51:41.542Z,0.60
2017-11-30T06:54:09.119Z,0.60
2017-11-30T06:56:36.681Z,0.60
2017-11-30T06:59:04.257Z,0.60
2017-11-30T07:01:31.797Z,0.60
2017-11-30T07:03:59.361Z,0.60
2017-11-30T07:06:26.898Z,0.60
2017-11-30T07:08:54.517Z,0.60
2017-11-30T07:11:22.857Z,0.60
2017-11-30T07:13:50.399Z,0.60
2017-11-30T07:16:17.965Z,0.60
2017-11-30T07:18:45.526Z,0.60
2017-11-30T07:21:13.113Z,0.50
2017-11-30T07:23:40.662Z,0.50
2017-11-30T07:26:08.215Z,0.50
2017-11-30T07:28:35.776Z,0.50
2017-11-30T07:31:03.323Z,0.60
2017-11-30T07:33:30.899Z,0.60
2017-11-30T07:35:58.492Z,0.60
2017-11-30T07:38:26.039Z,0.60
2017-11-30T07:40:53.577Z,0.60
2017-11-30T07:43:21.138Z,0.60
2017-11-30T07:45:48.707Z,0.50
2017-11-30T07:48:16.254Z,0.60
2017-11-30T07:50:43.803Z,0.60
2017-11-30T07:53:11.373Z,0.60
2017-11-30T07:55:38.929Z,0.60
2017-11-30T07:58:06.495Z,0.60
2017-11-30T08:00:34.041Z,0.60
2017-11-30T08:03:01.605Z,0.60
2017-11-30T08:05:29.148Z,0.60
2017-11-30T08:07:56.698Z,0.60
2017-11-30T08:10:24.285Z,0.60
2017-11-30T08:12:51.840Z,0.70
2017-11-30T08:15:19.424Z,0.70
2017-11-30T08:17:46.980Z,0.70
2017-11-30T08:20:14.529Z,0.80
2017-11-30T08:22:42.133Z,0.80
2017-11-30T08:25:09.695Z,0.80
2017-11-30T08:27:37.244Z,0.90
2017-11-30T08:30:04.821Z,0.90
2017-11-30T08:32:32.370Z,0.90
2017-11-30T08:34:59.935Z,0.90
2017-11-30T08:37:27.494Z,1.00
2017-11-30T08:39:55.063Z,1.10
2017-11-30T08:42:22.620Z,1.10
2017-11-30T08:44:50.164Z,1.20
2017-11-30T08:47:17.722Z,1.20
2017-11-30T08:49:45.288Z,1.30
2017-11-30T08:52:12.860Z,1.30
2017-11-30T08:54:40.404Z,1.30
2017-11-30T08:57:07.963Z,1.30
2017-11-30T08:59:35.547Z,1.40
2017-11-30T09:02:03.115Z,1.40
2017-11-30T09:04:31.456Z,1.50
2017-11-30T09:06:59.777Z,1.50
2017-11-30T09:09:28.102Z,1.60
2017-11-30T09:11:55.640Z,1.50
2017-11-30T09:14:23.184Z,1.60
2017-11-30T09:16:51.496Z,1.60
2017-11-30T09:19:19.048Z,1.50
2017-11-30T09:21:46.640Z,1.70
2017-11-30T09:24:14.941Z,1.70
2017-11-30T09:26:43.259Z,1.70
2017-11-30T09:29:10.829Z,1.60
2017-11-30T09:31:38.379Z,1.70
2017-11-30T09:34:06.005Z,1.60
2017-11-30T09:36:35.350Z,1.60
2017-11-30T09:39:02.929Z,1.60
2017-11-30T09:41:30.479Z,1.60
2017-11-30T09:43:58.038Z,1.60
2017-11-30T09:46:25.641Z,1.70
2017-11-30T09:48:53.977Z,1.60
2017-11-30T09:51:21.539Z,1.60
2017-11-30T09:53:49.071Z,1.60
2017-11-30T09:56:16.618Z,1.70
2017-11-30T09:58:44.193Z,1.80
2017-11-30T10:01:11.738Z,1.90
2017-11-30T10:03:40.054Z,2.00
2017-11-30T10:06:07.601Z,1.90
2017-11-30T10:08:35.145Z,2.10
2017-11-30T10:11:02.685Z,2.20
2017-11-30T10:13:31.001Z,2.40
2017-11-30T10:15:58.578Z,2.40
2017-11-30T10:18:26.122Z,2.40
2017-11-30T10:20:53.681Z,2.40
2017-11-30T10:23:21.224Z,2.30
2017-11-30T10:25:48.763Z,2.30
2017-11-30T10:28:16.604Z,2.40
2017-11-30T10:30:44.277Z,2.50
2017-11-30T10:33:11.827Z,2.40
2017-11-30T10:35:39.381Z,2.50
2017-11-30T10:38:09.510Z,2.60
2017-11-30T10:40:38.554Z,2.60
2017-11-30T10:43:06.221Z,2.40
2017-11-30T10:45:33.791Z,2.40
2017-11-30T10:48:01.337Z,2.40
2017-11-30T10:50:28.884Z,2.30
2017-11-30T10:52:57.190Z,2.30
2017-11-30T10:55:25.696Z,2.30
2017-11-30T10:57:53.275Z,2.40
2017-11-30T11:00:20.817Z,2.40
2017-11-30T11:02:48.359Z,2.40
2017-11-30T11:05:15.925Z,2.40
2017-11-30T11:07:43.481Z,2.30
2017-11-30T11:10:11.062Z,2.30
2017-11-30T11:12:38.612Z,2.30
2017-11-30T11:15:06.153Z,2.30
2017-11-30T11:17:33.702Z,2.30
2017-11-30T11:20:01.244Z,2.30
2017-11-30T11:22:29.571Z,2.10
2017-11-30T11:24:57.117Z,2.10
2017-11-30T11:27:24.654Z,2.10
2017-11-30T11:29:52.188Z,2.20
2017-11-30T11:32:20.488Z,2.30
2017-11-30T11:34:48.036Z,2.20
2017-11-30T11:37:16.352Z,2.50
2017-11-30T11:39:43.928Z,2.50
2017-11-30T11:42:12.242Z,2.80
2017-11-30T11:44:40.567Z,2.90
2017-11-30T11:47:08.115Z,2.80
2017-11-30T11:49:35.660Z,2.80
2017-11-30T11:52:03.237Z,2.80
2017-11-30T11:54:30.775Z,2.90
2017-11-30T11:56:58.329Z,2.80
2017-11-30T11:59:26.647Z,2.70
2017-11-30T12:01:54.204Z,2.70
2017-11-30T12:04:21.780Z,2.70
2017-11-30T12:06:49.357Z,2.70
2017-11-30T12:09:16.901Z,2.80
2017-11-30T12:11:44.447Z,2.80
2017-11-30T12:14:11.992Z,2.80
2017-11-30T12:16:39.601Z,2.90
2017-11-30T12:22:03.681Z,3.00
2017-11-30T12:24:31.242Z,3.00
2017-11-30T12:26:58.785Z,3.10
2017-11-30T12:29:26.321Z,3.20
2017-11-30T12:31:53.864Z,3.30
2017-11-30T12:34:22.213Z,3.40
2017-11-30T12:36:49.764Z,3.30
2017-11-30T12:39:17.317Z,3.50
2017-11-30T12:41:45.633Z,3.30
2017-11-30T12:44:13.950Z,3.40
2017-11-30T12:46:41.534Z,3.40
2017-11-30T12:49:09.064Z,3.20
2017-11-30T12:51:36.612Z,3.30
2017-11-30T12:54:04.151Z,3.20
2017-11-30T12:56:32.480Z,3.20
2017-11-30T12:59:00.037Z,3.20
2017-11-30T13:01:27.599Z,3.20
2017-11-30T13:03:55.162Z,3.40
2017-11-30T13:06:22.701Z,3.50
2017-11-30T13:08:50.238Z,3.60
2017-11-30T13:11:18.558Z,3.60
2017-11-30T13:13:46.134Z,3.50
2017-11-30T13:16:13.707Z,3.40
2017-11-30T13:18:41.272Z,3.20
2017-11-30T13:21:08.828Z,3.10
2017-11-30T13:23:36.388Z,3.00
2017-11-30T13:26:03.953Z,2.90
2017-11-30T13:28:31.534Z,2.80
2017-11-30T13:30:59.834Z,2.80
2017-11-30T13:33:27.386Z,2.80
2017-11-30T13:35:54.939Z,2.90
2017-11-30T13:38:23.252Z,2.90
2017-11-30T13:40:50.795Z,2.90
2017-11-30T13:43:18.335Z,2.90
2017-11-30T13:45:46.667Z,2.90
2017-11-30T13:48:14.209Z,2.90
2017-11-30T13:50:41.758Z,2.90
2017-11-30T13:53:09.312Z,2.90
2017-11-30T13:55:36.852Z,2.90
2017-11-30T13:58:17.087Z,2.80
2017-11-30T14:00:44.633Z,2.80
2017-11-30T14:03:12.179Z,2.80
2017-11-30T14:05:39.711Z,2.80
2017-11-30T14:08:07.247Z,2.80
2017-11-30T14:10:37.323Z,2.80
2017-11-30T14:13:04.861Z,2.80
2017-11-30T14:15:32.403Z,2.80
2017-11-30T14:17:59.948Z,2.70
2017-11-30T14:20:28.259Z,2.60
2017-11-30T14:22:55.787Z,2.60
2017-11-30T14:25:24.082Z,2.50
2017-11-30T14:27:51.652Z,2.50
2017-11-30T14:30:19.198Z,2.50
2017-11-30T14:32:46.738Z,2.40
2017-11-30T14:35:15.045Z,2.30
2017-11-30T14:37:42.579Z,2.30
2017-11-30T14:40:10.907Z,2.20
2017-11-30T14:42:38.467Z,2.20
2017-11-30T14:45:06.016Z,2.10
2017-11-30T14:47:33.558Z,2.10
2017-11-30T14:50:01.568Z,2.00
2017-11-30T14:52:29.103Z,2.00
2017-11-30T14:54:56.676Z,1.90
2017-11-30T14:57:24.235Z,1.90
2017-11-30T14:59:52.559Z,1.80
2017-11-30T15:02:20.872Z,1.80
2017-11-30T15:04:48.406Z,1.80
2017-11-30T15:07:16.702Z,1.80
2017-11-30T15:09:44.242Z,1.80
2017-11-30T15:12:17.230Z,1.70
2017-11-30T15:14:45.566Z,1.70
2017-11-30T15:17:13.151Z,1.70
2017-11-30T15:19:41.458Z,1.70
2017-11-30T15:22:09.054Z,1.70
2017-11-30T15:24:36.607Z,1.70
2017-11-30T15:27:04.142Z,1.70
2017-11-30T15:29:31.687Z,1.80
2017-11-30T15:32:00.010Z,1.90
2017-11-30T15:34:29.195Z,1.90
2017-11-30T15:36:58.655Z,1.90
2017-11-30T15:39:26.194Z,2.00
2017-11-30T15:41:54.523Z,2.00
2017-11-30T15:44:22.107Z,2.00
2017-11-30T15:46:49.649Z,2.00
2017-11-30T15:49:17.192Z,2.00
2017-11-30T15:51:44.998Z,1.90
2017-11-30T15:54:12.532Z,1.90
2017-11-30T15:56:40.083Z,1.90
2017-11-30T15:59:07.633Z,1.90
2017-11-30T16:01:35.939Z,1.90
2017-11-30T16:04:03.484Z,1.90
2017-11-30T16:06:31.023Z,1.90
2017-11-30T16:08:58.626Z,1.90
2017-11-30T16:11:26.169Z,1.90
2017-11-30T16:13:53.712Z,1.90
2017-11-30T16:16:21.254Z,1.90
2017-11-30T16:18:49.577Z,2.00
2017-11-30T16:21:23.092Z,2.00
2017-11-30T16:23:50.661Z,2.10
2017-11-30T16:26:18.259Z,2.00
2017-11-30T16:28:46.619Z,2.00
2017-11-30T16:31:14.159Z,2.00
2017-11-30T16:33:41.712Z,2.10
2017-11-30T16:36:09.248Z,2.10
2017-11-30T16:38:38.787Z,2.10
2017-11-30T16:41:06.327Z,2.10
2017-11-30T16:43:33.889Z,2.10
2017-11-30T16:46:01.452Z,2.10
2017-11-30T16:48:28.984Z,2.10
2017-11-30T16:50:56.590Z,2.10
2017-11-30T16:53:24.155Z,2.20
2017-11-30T16:55:51.747Z,2.20
2017-11-30T16:58:19.291Z,2.20
2017-11-30T17:00:46.830Z,2.20
2017-11-30T17:03:14.373Z,2.20
2017-11-30T17:05:41.910Z,2.10
2017-11-30T17:08:09.480Z,2.10
2017-11-30T17:10:37.037Z,2.10
2017-11-30T17:13:04.593Z,2.00
2017-11-30T17:15:32.153Z,2.00
2017-11-30T17:17:59.694Z,1.90
2017-11-30T17:20:34.962Z,1.80
2017-11-30T17:23:02.544Z,1.80
2017-11-30T17:25:30.098Z,1.70
2017-11-30T17:27:57.654Z,1.70
2017-11-30T17:30:25.234Z,1.70
2017-11-30T17:32:52.785Z,1.60
2017-11-30T17:35:20.361Z,1.60
2017-11-30T17:37:47.991Z,1.50
2017-11-30T17:40:15.591Z,1.50
2017-11-30T17:42:43.162Z,1.50
2017-11-30T17:45:10.715Z,1.40
2017-11-30T17:47:38.263Z,1.30
2017-11-30T17:50:05.832Z,1.30
2017-11-30T17:52:33.379Z,1.20
2017-11-30T17:55:00.972Z,1.20
2017-11-30T17:57:29.290Z,1.00
2017-11-30T17:59:56.835Z,1.00
2017-11-30T18:02:28.690Z,1.00
2017-11-30T18:04:56.232Z,1.00
2017-11-30T18:07:23.805Z,0.90
2017-11-30T18:09:51.355Z,0.90
2017-11-30T18:12:19.851Z,1.00
2017-11-30T18:14:47.490Z,1.00
2017-11-30T18:17:15.829Z,1.00
2017-11-30T18:19:43.387Z,1.00
2017-11-30T18:22:10.929Z,1.00
2017-11-30T18:24:38.826Z,1.00
2017-11-30T18:27:07.630Z,1.00
2017-11-30T18:29:36.164Z,1.00
2017-11-30T18:32:04.747Z,1.00
2017-11-30T18:34:32.526Z,1.00
2017-11-30T18:37:00.086Z,1.00
2017-11-30T18:39:27.775Z,1.00
2017-11-30T18:41:57.340Z,0.90
2017-11-30T18:44:24.882Z,0.90
2017-11-30T18:46:53.194Z,0.90
2017-11-30T18:49:20.771Z,0.80
2017-11-30T18:51:58.631Z,0.80
2017-11-30T18:54:26.214Z,0.70
2017-11-30T18:56:53.769Z,0.70
2017-11-30T18:59:21.316Z,0.60
2017-11-30T19:01:48.894Z,0.60
2017-11-30T19:04:16.439Z,0.60
2017-11-30T19:06:43.997Z,0.50
2017-11-30T19:09:11.541Z,0.60
2017-11-30T19:11:39.870Z,0.70
2017-11-30T19:14:07.417Z,0.70
2017-11-30T19:16:34.960Z,0.70
2017-11-30T19:19:02.507Z,0.70
2017-11-30T19:21:30.798Z,0.80
2017-11-30T19:23:58.361Z,0.80
2017-11-30T19:26:25.906Z,0.80
2017-11-30T19:28:53.487Z,0.80
2017-11-30T19:31:21.032Z,0.90
2017-11-30T19:33:48.567Z,0.90
2017-11-30T19:36:16.871Z,1.00
2017-11-30T19:38:44.425Z,0.90
2017-11-30T19:41:12.033Z,1.00
2017-11-30T19:43:39.602Z,0.90
2017-11-30T19:46:07.160Z,0.90
2017-11-30T19:48:34.715Z,0.90
2017-11-30T19:51:02.288Z,0.80
2017-11-30T19:53:29.854Z,0.80
2017-11-30T19:55:58.200Z,0.70
2017-11-30T19:58:25.806Z,0.70
2017-11-30T20:00:54.147Z,0.70
2017-11-30T20:03:21.704Z,0.70
2017-11-30T20:05:49.253Z,0.60
2017-11-30T20:08:16.799Z,0.60
2017-11-30T20:10:44.403Z,0.60
2017-11-30T20:13:11.954Z,0.60
2017-11-30T20:15:39.523Z,0.50
2017-11-30T20:18:07.076Z,0.50
2017-11-30T20:20:34.711Z,0.50
2017-11-30T20:23:02.308Z,0.40
2017-11-30T20:25:29.866Z,0.30
2017-11-30T20:27:57.415Z,0.20
2017-11-30T20:30:24.984Z,0.20
2017-11-30T20:32:52.564Z,0.20
2017-11-30T20:35:20.132Z,0.20
2017-11-30T20:37:48.458Z,0.10
2017-11-30T20:40:16.003Z,0.00
2017-11-30T20:42:43.569Z,0.00
2017-11-30T20:45:11.124Z,-0.10
2017-11-30T20:47:39.255Z,-0.10
2017-11-30T20:50:06.811Z,-0.20
2017-11-30T20:52:34.377Z,-0.30
2017-11-30T20:55:02.701Z,-0.30
2017-11-30T20:57:30.626Z,-0.30
2017-11-30T20:59:58.176Z,-0.40
2017-11-30T21:02:25.741Z,-0.40
2017-11-30T21:04:53.340Z,-0.40
2017-11-30T21:07:20.892Z,-0.50
2017-11-30T21:09:48.460Z,-0.50
2017-11-30T21:15:09.127Z,-0.50
2017-11-30T21:17:37.657Z,-0.60
2017-11-30T21:20:17.241Z,-0.60
2017-11-30T21:22:53.179Z,-0.60
2017-11-30T21:25:20.734Z,-0.60
2017-11-30T21:27:48.324Z,-0.60
2017-11-30T21:30:15.871Z,-0.60
2017-11-30T21:32:43.419Z,-0.60
2017-11-30T21:35:11.003Z,-0.70
2017-11-30T21:37:38.555Z,-0.70
2017-11-30T21:40:23.266Z,-0.80
2017-11-30T21:42:51.576Z,-0.80
2017-11-30T21:45:19.122Z,-0.90
2017-11-30T21:47:46.680Z,-0.90
2017-11-30T21:50:14.229Z,-0.90
2017-11-30T21:52:41.790Z,-0.90
2017-11-30T21:55:09.342Z,-0.90
2017-11-30T21:57:37.659Z,-0.90
2017-11-30T22:00:05.270Z,-1.00
2017-11-30T22:02:33.591Z,-1.00
2017-11-30T22:05:01.146Z,-1.00
2017-11-30T22:07:28.694Z,-1.00
2017-11-30T22:09:56.243Z,-1.00
2017-11-30T22:12:23.795Z,-0.90
2017-11-30T22:14:51.403Z,-0.90
2017-11-30T22:17:18.959Z,-0.90
2017-11-30T22:19:46.549Z,-0.90
2017-11-30T22:22:14.113Z,-0.90
2017-11-30T22:24:41.705Z,-0.90
2017-11-30T22:27:10.084Z,-0.90
2017-11-30T22:29:37.670Z,-0.90
2017-11-30T22:32:05.219Z,-0.90
2017-11-30T22:34:32.773Z,-1.00
2017-11-30T22:37:00.369Z,-1.00
2017-11-30T22:39:27.926Z,-1.00
2017-11-30T22:41:55.514Z,-0.90
2017-11-30T22:44:23.073Z,-0.80
2017-11-30T22:46:50.634Z,-0.80
2017-11-30T22:49:18.274Z,-0.80
2017-11-30T22:51:45.839Z,-0.90
2017-11-30T22:54:13.415Z,-0.90
2017-11-30T22:56:41.007Z,-0.90
2017-11-30T22:59:09.324Z,-1.00
2017-11-30T23:01:36.911Z,-1.00
2017-11-30T23:04:04.472Z,-1.00
2017-11-30T23:06:32.019Z,-0.90
2017-11-30T23:08:59.599Z,-0.90
2017-11-30T23:11:27.161Z,-0.90
2017-11-30T23:13:54.744Z,-0.80
2017-11-30T23:16:23.069Z,-0.70
2017-11-30T23:18:50.649Z,-0.80
2017-11-30T23:21:18.205Z,-0.70
2017-11-30T23:23:45.760Z,-0.70
2017-11-30T23:26:13.318Z,-0.70
2017-11-30T23:28:41.132Z,-0.80
2017-11-30T23:31:09.508Z,-0.80
2017-11-30T23:33:37.831Z,-0.80
2017-11-30T23:36:05.376Z,-0.90
2017-11-30T23:38:32.947Z,-0.90
2017-11-30T23:41:00.495Z,-0.90
2017-11-30T23:43:28.075Z,-0.80
2017-11-30T23:45:55.628Z,-0.80
2017-11-30T23:48:23.203Z,-0.90
2017-11-30T23:50:50.750Z,-0.80
2017-11-30T23:53:18.294Z,-0.80
2017-11-30T23:55:45.858Z,-0.70
2017-11-30T23:58:13.406Z,-0.70
